Time;durP1;ratioP1;P1;durP2;ratioP2;P2;SDS_P1;SDS_P2;PMS_P1;PMS_P2;Temp;Humidity;BMP_temperature;BMP_pressure;BME280_temperature;BME280_humidity;BME280_pressure;Samples;Min_cycle;Max_cycle;Signal;HPM_P1;HPM_P2
2021/08/04 00:01:00;;;;;;;2.85;2.42;;;;;;;;;;5094372;28;20016;-49
2021/08/04 00:03:26;;;;;;;3.83;2.15;;;;;;;;;;5069551;28;20021;-52
2021/08/04 00:05:52;;;;;;;6.55;3.03;;;;;;;;;;5094257;28;20030;-49
2021/08/04 00:08:18;;;;;;;6.45;2.80;;;;;;;;;;5073762;28;20111;-49
2021/08/04 00:10:44;;;;;;;5.63;2.58;;;;;;;;;;5089218;28;20045;-49
2021/08/04 00:13:10;;;;;;;6.60;3.40;;;;;;;;;;5082556;28;20028;-51
2021/08/04 00:15:37;;;;;;;3.97;2.83;;;;;;;;;;5073129;28;20473;-49
2021/08/04 00:18:03;;;;;;;4.60;3.10;;;;;;;;;;5082165;28;20149;-49
2021/08/04 00:20:29;;;;;;;3.90;2.65;;;;;;;;;;5080422;28;20024;-49
2021/08/04 00:22:55;;;;;;;4.18;2.83;;;;;;;;;;5086038;28;20484;-50
2021/08/04 00:25:21;;;;;;;5.18;2.60;;;;;;;;;;5089205;28;20067;-49
2021/08/04 00:27:47;;;;;;;3.88;2.90;;;;;;;;;;5093582;28;20491;-50
2021/08/04 00:30:13;;;;;;;4.15;3.13;;;;;;;;;;5094265;28;20035;-49
2021/08/04 00:32:39;;;;;;;3.38;2.55;;;;;;;;;;5093684;28;20469;-49
2021/08/04 00:35:05;;;;;;;5.03;2.72;;;;;;;;;;5075880;28;20028;-49
2021/08/04 00:37:31;;;;;;;7.68;3.85;;;;;;;;;;5073622;28;20035;-49
2021/08/04 00:39:57;;;;;;;3.45;2.78;;;;;;;;;;5093894;28;20016;-49
2021/08/04 00:42:23;;;;;;;3.65;2.40;;;;;;;;;;5093632;28;20020;-51
2021/08/04 00:44:49;;;;;;;3.47;2.50;;;;;;;;;;5069549;28;20033;-49
2021/08/04 00:47:17;;;;;;;4.72;3.20;;;;;;;;;;5082285;28;20039;-49
2021/08/04 00:49:43;;;;;;;7.03;2.67;;;;;;;;;;5093369;28;20352;-49
2021/08/04 00:52:09;;;;;;;5.28;2.85;;;;;;;;;;5089777;28;20491;-50
2021/08/04 00:54:35;;;;;;;3.33;2.35;;;;;;;;;;5091164;28;20032;-49
2021/08/04 00:57:01;;;;;;;6.45;3.38;;;;;;;;;;5062244;28;20033;-49
2021/08/04 00:59:27;;;;;;;3.63;2.90;;;;;;;;;;5093131;28;20020;-51
2021/08/04 01:02:00;;;;;;;4.72;3.13;;;;;;;;;;5078509;28;20029;-49
2021/08/04 01:04:30;;;;;;;6.95;3.55;;;;;;;;;;5069595;28;20037;-49
2021/08/04 01:07:05;;;;;;;3.60;2.95;;;;;;;;;;5075231;28;20467;-49
2021/08/04 01:09:40;;;;;;;4.32;2.78;;;;;;;;;;5084491;28;20357;-49
2021/08/04 01:12:07;;;;;;;4.07;2.92;;;;;;;;;;5083210;28;20365;-50
2021/08/04 01:14:35;;;;;;;3.38;2.75;;;;;;;;;;5092802;28;20028;-49
2021/08/04 01:17:02;;;;;;;4.28;2.88;;;;;;;;;;5085976;28;20024;-49
2021/08/04 01:19:38;;;;;;;3.55;2.97;;;;;;;;;;5081222;28;20464;-49
2021/08/04 01:22:07;;;;;;;6.32;3.13;;;;;;;;;;5092255;28;20406;-49
2021/08/04 01:24:39;;;;;;;6.57;2.97;;;;;;;;;;5084593;28;20476;-49
2021/08/04 01:27:05;;;;;;;5.40;2.97;;;;;;;;;;5068000;28;20555;-51
2021/08/04 01:29:32;;;;;;;5.50;3.47;;;;;;;;;;5092583;28;20024;-49
2021/08/04 01:32:00;;;;;;;4.63;3.15;;;;;;;;;;5085997;28;20020;-49
2021/08/04 01:34:27;;;;;;;3.92;3.10;;;;;;;;;;5070589;28;20036;-50
2021/08/04 01:36:53;;;;;;;3.10;2.80;;;;;;;;;;5058732;28;20029;-49
2021/08/04 01:39:21;;;;;;;3.92;2.90;;;;;;;;;;5082729;28;20360;-49
2021/08/04 01:41:48;;;;;;;3.70;2.85;;;;;;;;;;5086679;28;20032;-49
2021/08/04 01:44:14;;;;;;;5.47;3.05;;;;;;;;;;5073722;28;20103;-50
2021/08/04 01:46:41;;;;;;;4.88;2.80;;;;;;;;;;5083957;28;20476;-49
2021/08/04 01:49:07;;;;;;;4.47;3.22;;;;;;;;;;5088275;28;20020;-49
2021/08/04 01:51:33;;;;;;;3.70;2.80;;;;;;;;;;5084007;28;20031;-50
2021/08/04 01:53:59;;;;;;;4.80;2.75;;;;;;;;;;5058102;28;20032;-49
2021/08/04 01:56:26;;;;;;;4.55;2.97;;;;;;;;;;5080594;28;20083;-49
2021/08/04 01:58:52;;;;;;;6.32;3.13;;;;;;;;;;5085238;28;20028;-49
2021/08/04 02:01:18;;;;;;;3.38;2.80;;;;;;;;;;5077346;28;20114;-49
2021/08/04 02:03:44;;;;;;;4.97;3.05;;;;;;;;;;5086517;28;20043;-49
2021/08/04 02:06:15;;;;;;;3.92;2.80;;;;;;;;;;5092125;28;20032;-50
2021/08/04 02:08:51;;;;;;;3.67;3.15;;;;;;;;;;5079285;28;20837;-49
2021/08/04 02:11:24;;;;;;;3.75;3.28;;;;;;;;;;5073347;28;20045;-49
2021/08/04 02:13:53;;;;;;;5.07;2.97;;;;;;;;;;5066172;28;20031;-50
2021/08/04 02:16:23;;;;;;;3.92;3.45;;;;;;;;;;5092030;28;20028;-50
2021/08/04 02:18:52;;;;;;;4.18;3.08;;;;;;;;;;5061739;28;20031;-49
2021/08/04 02:21:21;;;;;;;6.45;3.45;;;;;;;;;;5085248;28;20020;-50
2021/08/04 02:23:48;;;;;;;4.13;3.38;;;;;;;;;;5068928;28;20111;-50
2021/08/04 02:26:16;;;;;;;4.57;3.00;;;;;;;;;;5086979;28;20349;-49
2021/08/04 02:28:43;;;;;;;5.95;3.38;;;;;;;;;;5095972;28;20024;-51
2021/08/04 02:31:11;;;;;;;6.50;3.13;;;;;;;;;;5077848;28;20082;-50
2021/08/04 02:33:37;;;;;;;5.90;3.58;;;;;;;;;;5087140;28;20031;-50
2021/08/04 02:36:04;;;;;;;4.95;3.90;;;;;;;;;;5068871;28;20089;-49
2021/08/04 02:38:30;;;;;;;5.85;3.85;;;;;;;;;;5095637;28;20027;-49
2021/08/04 02:40:56;;;;;;;5.15;4.25;;;;;;;;;;5083469;28;20040;-49
2021/08/04 02:43:23;;;;;;;6.47;4.00;;;;;;;;;;5074219;28;20084;-49
2021/08/04 02:45:50;;;;;;;5.70;3.28;;;;;;;;;;5080265;28;20037;-49
2021/08/04 02:48:17;;;;;;;4.20;3.38;;;;;;;;;;5080954;28;20032;-49
2021/08/04 02:50:45;;;;;;;5.80;3.50;;;;;;;;;;5095630;28;20598;-49
2021/08/04 02:53:14;;;;;;;6.75;3.83;;;;;;;;;;5076386;28;20041;-50
2021/08/04 02:55:40;;;;;;;4.05;3.30;;;;;;;;;;5090906;28;20130;-49
2021/08/04 02:58:06;;;;;;;5.18;3.75;;;;;;;;;;5095690;28;20024;-50
2021/08/04 03:00:32;;;;;;;4.35;3.95;;;;;;;;;;5095392;28;20021;-49
2021/08/04 03:02:58;;;;;;;4.53;3.35;;;;;;;;;;5090527;28;20024;-49
2021/08/04 03:05:24;;;;;;;5.18;3.67;;;;;;;;;;5089257;28;20031;-49
2021/08/04 03:07:50;;;;;;;5.97;3.78;;;;;;;;;;5072406;28;20089;-49
2021/08/04 03:10:16;;;;;;;7.45;4.05;;;;;;;;;;5092462;28;20082;-49
2021/08/04 03:12:42;;;;;;;5.68;3.67;;;;;;;;;;5087337;28;20039;-49
2021/08/04 03:15:08;;;;;;;5.35;3.47;;;;;;;;;;5072763;28;20036;-49
2021/08/04 03:17:34;;;;;;;5.28;4.00;;;;;;;;;;5074313;28;20085;-50
2021/08/04 03:20:00;;;;;;;7.15;3.92;;;;;;;;;;5078775;28;20028;-49
2021/08/04 03:22:26;;;;;;;4.72;3.70;;;;;;;;;;5086769;28;20023;-50
2021/08/04 03:24:52;;;;;;;6.18;3.90;;;;;;;;;;5063783;28;20457;-49
2021/08/04 03:27:18;;;;;;;5.50;3.80;;;;;;;;;;5095434;28;20368;-50
2021/08/04 03:29:44;;;;;;;5.22;4.10;;;;;;;;;;5094553;28;20028;-49
2021/08/04 03:32:10;;;;;;;7.07;3.67;;;;;;;;;;5075797;28;20024;-49
2021/08/04 03:34:36;;;;;;;5.32;3.70;;;;;;;;;;5066628;28;20035;-51
2021/08/04 03:37:02;;;;;;;7.03;4.15;;;;;;;;;;5058942;28;20082;-50
2021/08/04 03:39:28;;;;;;;5.78;4.03;;;;;;;;;;5085315;28;20024;-49
2021/08/04 03:41:54;;;;;;;3.97;3.45;;;;;;;;;;5080418;28;20444;-50
2021/08/04 03:44:20;;;;;;;5.50;4.00;;;;;;;;;;5087819;28;20016;-49
2021/08/04 03:46:47;;;;;;;5.80;4.20;;;;;;;;;;5087279;28;20111;-50
2021/08/04 03:49:14;;;;;;;5.15;4.00;;;;;;;;;;5086850;28;20040;-49
2021/08/04 03:51:40;;;;;;;5.35;3.50;;;;;;;;;;5093107;28;20084;-50
2021/08/04 03:54:06;;;;;;;4.93;4.00;;;;;;;;;;5064657;28;20530;-49
2021/08/04 03:56:32;;;;;;;5.47;4.20;;;;;;;;;;5087491;28;20388;-49
2021/08/04 03:58:58;;;;;;;10.45;4.47;;;;;;;;;;5093947;28;20071;-49
2021/08/04 04:01:24;;;;;;;6.88;4.22;;;;;;;;;;5094958;28;20073;-49
2021/08/04 04:03:50;;;;;;;6.97;4.30;;;;;;;;;;5094472;28;20024;-50
2021/08/04 04:06:16;;;;;;;5.57;4.13;;;;;;;;;;5075212;28;20456;-49
2021/08/04 04:08:42;;;;;;;4.55;3.78;;;;;;;;;;5093646;28;20041;-50
2021/08/04 04:11:08;;;;;;;6.38;4.93;;;;;;;;;;5085716;28;20090;-49
2021/08/04 04:13:34;;;;;;;5.43;3.92;;;;;;;;;;5069749;28;20490;-49
2021/08/04 04:16:00;;;;;;;4.72;3.67;;;;;;;;;;5057611;28;20388;-51
2021/08/04 04:18:26;;;;;;;5.63;4.22;;;;;;;;;;5084930;28;20036;-49
2021/08/04 04:20:52;;;;;;;5.38;4.25;;;;;;;;;;5066639;28;20040;-51
2021/08/04 04:23:18;;;;;;;5.60;4.20;;;;;;;;;;5086707;28;20476;-49
2021/08/04 04:25:44;;;;;;;6.15;4.75;;;;;;;;;;5060915;28;20029;-50
2021/08/04 04:28:10;;;;;;;5.68;4.47;;;;;;;;;;5070116;28;20040;-51
2021/08/04 04:30:36;;;;;;;6.18;4.05;;;;;;;;;;5094559;28;20059;-49
2021/08/04 04:33:02;;;;;;;5.00;4.00;;;;;;;;;;5072624;28;20114;-50
2021/08/04 04:35:28;;;;;;;4.18;3.67;;;;;;;;;;5071316;28;20036;-50
2021/08/04 04:37:54;;;;;;;5.20;4.07;;;;;;;;;;5084353;28;20038;-49
2021/08/04 04:40:20;;;;;;;5.20;4.28;;;;;;;;;;5084717;28;20357;-50
2021/08/04 04:42:46;;;;;;;6.55;4.15;;;;;;;;;;5070508;28;20033;-49
2021/08/04 04:45:12;;;;;;;7.45;4.53;;;;;;;;;;5068928;28;20032;-50
2021/08/04 04:47:38;;;;;;;7.47;4.68;;;;;;;;;;5078401;28;20104;-49
2021/08/04 04:50:04;;;;;;;6.80;4.60;;;;;;;;;;5093643;28;20032;-50
2021/08/04 04:52:30;;;;;;;6.93;4.72;;;;;;;;;;5089390;28;20438;-52
2021/08/04 04:54:56;;;;;;;5.53;4.80;;;;;;;;;;5074941;28;20152;-49
2021/08/04 04:57:22;;;;;;;5.20;4.18;;;;;;;;;;5084899;28;20065;-49
2021/08/04 04:59:48;;;;;;;5.95;4.72;;;;;;;;;;5065911;28;20031;-49
2021/08/04 05:02:14;;;;;;;5.63;4.20;;;;;;;;;;5078329;28;20043;-51
2021/08/04 05:04:40;;;;;;;5.65;4.88;;;;;;;;;;5074228;28;20020;-49
2021/08/04 05:07:06;;;;;;;4.90;4.28;;;;;;;;;;5069422;28;20025;-50
2021/08/04 05:09:32;;;;;;;5.95;4.40;;;;;;;;;;5087045;28;20360;-51
2021/08/04 05:11:58;;;;;;;5.35;4.70;;;;;;;;;;5077152;28;20036;-49
2021/08/04 05:14:24;;;;;;;7.25;4.70;;;;;;;;;;5063311;28;20072;-50
2021/08/04 05:16:50;;;;;;;5.28;4.57;;;;;;;;;;5059046;28;20481;-50
2021/08/04 05:19:16;;;;;;;6.13;4.25;;;;;;;;;;5059308;28;20025;-51
2021/08/04 05:21:42;;;;;;;5.18;4.10;;;;;;;;;;5057293;28;20725;-51
2021/08/04 05:24:08;;;;;;;6.30;4.40;;;;;;;;;;5053171;28;20075;-50
2021/08/04 05:26:34;;;;;;;8.52;4.32;;;;;;;;;;5053695;28;20036;-49
2021/08/04 05:29:00;;;;;;;5.30;4.43;;;;;;;;;;5055858;28;20116;-51
2021/08/04 05:31:26;;;;;;;4.70;4.20;;;;;;;;;;5059370;28;20526;-50
2021/08/04 05:33:52;;;;;;;5.25;4.40;;;;;;;;;;5055562;28;20036;-52
2021/08/04 05:36:18;;;;;;;6.22;4.32;;;;;;;;;;5051286;28;20025;-51
2021/08/04 05:38:44;;;;;;;4.88;4.25;;;;;;;;;;5054790;28;20512;-49
2021/08/04 05:41:10;;;;;;;7.03;5.05;;;;;;;;;;5071394;28;20025;-50
2021/08/04 05:43:36;;;;;;;5.72;4.35;;;;;;;;;;5053347;28;20047;-51
2021/08/04 05:46:02;;;;;;;6.32;4.57;;;;;;;;;;5051382;28;20036;-50
2021/08/04 05:48:28;;;;;;;5.50;4.65;;;;;;;;;;5052266;28;20451;-53
2021/08/04 05:50:54;;;;;;;5.32;4.45;;;;;;;;;;5070853;28;20089;-50
2021/08/04 05:53:19;;;;;;;5.50;4.57;;;;;;;;;;5053847;28;20043;-52
2021/08/04 05:55:45;;;;;;;5.00;4.50;;;;;;;;;;5070352;28;20044;-50
2021/08/04 05:58:11;;;;;;;5.43;4.18;;;;;;;;;;5068532;28;20101;-50
2021/08/04 06:00:38;;;;;;;4.57;4.03;;;;;;;;;;5053365;28;20025;-50
2021/08/04 06:03:04;;;;;;;4.38;3.97;;;;;;;;;;5061785;28;20028;-50
2021/08/04 06:05:29;;;;;;;6.90;4.38;;;;;;;;;;5063895;28;20420;-50
2021/08/04 06:07:55;;;;;;;7.47;4.47;;;;;;;;;;5062994;28;20135;-50
2021/08/04 06:10:21;;;;;;;5.18;4.03;;;;;;;;;;5083428;28;20040;-49
2021/08/04 06:12:47;;;;;;;5.22;4.28;;;;;;;;;;5059310;28;20021;-49
2021/08/04 06:15:13;;;;;;;4.60;4.05;;;;;;;;;;5064589;28;20086;-50
2021/08/04 06:17:39;;;;;;;5.18;3.70;;;;;;;;;;5078545;28;20492;-49
2021/08/04 06:20:06;;;;;;;5.82;4.07;;;;;;;;;;5078761;28;20025;-49
2021/08/04 06:22:32;;;;;;;5.22;3.78;;;;;;;;;;5079137;28;20122;-51
2021/08/04 06:24:58;;;;;;;5.20;3.90;;;;;;;;;;5088021;28;20032;-50
2021/08/04 06:27:24;;;;;;;10.95;4.47;;;;;;;;;;5091927;28;20040;-49
2021/08/04 06:29:49;;;;;;;5.25;4.13;;;;;;;;;;5091588;28;20107;-49
2021/08/04 06:32:15;;;;;;;5.47;3.80;;;;;;;;;;5090387;28;20032;-50
2021/08/04 06:34:41;;;;;;;4.82;3.55;;;;;;;;;;5086686;28;20055;-49
2021/08/04 06:37:08;;;;;;;4.68;3.80;;;;;;;;;;5060188;28;20025;-49
2021/08/04 06:39:34;;;;;;;5.10;4.03;;;;;;;;;;5066420;28;20033;-49
2021/08/04 06:42:00;;;;;;;5.15;3.67;;;;;;;;;;5066653;28;20021;-49
2021/08/04 06:44:27;;;;;;;7.63;3.75;;;;;;;;;;5080004;28;20353;-52
2021/08/04 06:46:57;;;;;;;5.43;3.85;;;;;;;;;;5083133;28;20033;-49
2021/08/04 06:49:23;;;;;;;4.75;3.63;;;;;;;;;;5083280;28;20032;-49
2021/08/04 06:51:49;;;;;;;5.57;3.92;;;;;;;;;;5091752;28;20035;-49
2021/08/04 06:54:15;;;;;;;4.65;3.88;;;;;;;;;;5086496;28;20032;-49
2021/08/04 06:56:41;;;;;;;6.28;4.05;;;;;;;;;;5091792;28;20107;-49
2021/08/04 06:59:07;;;;;;;6.38;4.15;;;;;;;;;;5085710;28;20020;-49
2021/08/04 07:01:33;;;;;;;8.43;3.33;;;;;;;;;;5066626;28;20125;-50
2021/08/04 07:03:59;;;;;;;4.00;3.58;;;;;;;;;;5080446;28;20040;-49
2021/08/04 07:06:25;;;;;;;4.78;3.88;;;;;;;;;;5054022;28;20018;-50
2021/08/04 07:08:51;;;;;;;4.40;3.60;;;;;;;;;;5064770;28;20362;-49
2021/08/04 07:11:22;;;;;;;3.72;3.40;;;;;;;;;;5061974;28;20033;-49
2021/08/04 07:13:48;;;;;;;11.25;4.25;;;;;;;;;;5070447;28;20033;-50
2021/08/04 07:16:14;;;;;;;5.47;3.55;;;;;;;;;;5070552;28;20087;-49
2021/08/04 07:18:40;;;;;;;4.75;3.47;;;;;;;;;;5076879;28;20023;-49
2021/08/04 07:21:06;;;;;;;4.72;3.40;;;;;;;;;;5076869;28;20033;-49
2021/08/04 07:23:32;;;;;;;6.93;3.45;;;;;;;;;;5085814;28;20035;-49
2021/08/04 07:25:58;;;;;;;4.78;3.55;;;;;;;;;;5066017;28;20032;-49
2021/08/04 07:28:24;;;;;;;4.85;3.75;;;;;;;;;;5055073;28;20108;-50
2021/08/04 07:30:49;;;;;;;7.22;3.83;;;;;;;;;;5068299;28;20033;-52
2021/08/04 07:33:16;;;;;;;6.57;4.32;;;;;;;;;;5070980;28;20031;-50
2021/08/04 07:35:42;;;;;;;5.28;3.97;;;;;;;;;;5064817;28;20357;-49
2021/08/04 07:38:08;;;;;;;4.20;3.50;;;;;;;;;;5084665;28;20379;-50
2021/08/04 07:40:34;;;;;;;6.07;3.80;;;;;;;;;;5072875;28;20052;-49
2021/08/04 07:43:00;;;;;;;4.82;3.85;;;;;;;;;;5066407;28;20028;-50
2021/08/04 07:45:26;;;;;;;4.40;3.65;;;;;;;;;;5081843;28;20468;-49
2021/08/04 07:47:51;;;;;;;3.95;3.15;;;;;;;;;;5077043;28;20430;-49
2021/08/04 07:50:17;;;;;;;8.95;3.67;;;;;;;;;;5076179;28;20029;-49
2021/08/04 07:52:43;;;;;;;7.03;3.58;;;;;;;;;;5094535;28;20069;-49
2021/08/04 07:55:13;;;;;;;5.18;3.83;;;;;;;;;;5089924;28;20392;-49
2021/08/04 07:57:39;;;;;;;5.82;3.40;;;;;;;;;;5091442;28;20031;-50
2021/08/04 08:00:05;;;;;;;5.53;3.88;;;;;;;;;;5070105;28;20032;-49
2021/08/04 08:02:31;;;;;;;5.50;3.95;;;;;;;;;;5082543;28;20103;-49
2021/08/04 08:04:57;;;;;;;5.28;4.07;;;;;;;;;;5062310;28;20043;-50
2021/08/04 08:07:24;;;;;;;6.28;3.95;;;;;;;;;;5094337;28;20031;-49
2021/08/04 08:09:50;;;;;;;5.40;3.72;;;;;;;;;;5071203;28;20493;-49
2021/08/04 08:12:16;;;;;;;3.95;3.17;;;;;;;;;;5081034;28;20110;-49
2021/08/04 08:14:42;;;;;;;6.10;3.70;;;;;;;;;;5072457;28;20048;-49
2021/08/04 08:17:08;;;;;;;5.35;4.07;;;;;;;;;;5085988;28;20056;-51
2021/08/04 08:19:34;;;;;;;5.68;3.70;;;;;;;;;;5076093;28;20021;-49
2021/08/04 08:22:00;;;;;;;5.68;3.50;;;;;;;;;;5080875;28;20391;-49
2021/08/04 08:24:26;;;;;;;4.28;3.25;;;;;;;;;;5069300;28;20037;-49
2021/08/04 08:26:52;;;;;;;6.28;3.85;;;;;;;;;;5075127;28;20033;-49
2021/08/04 08:29:18;;;;;;;6.38;3.40;;;;;;;;;;5081137;28;20024;-49
2021/08/04 08:31:44;;;;;;;4.90;4.07;;;;;;;;;;5059302;28;20511;-50
2021/08/04 08:34:10;;;;;;;4.60;3.53;;;;;;;;;;5057044;28;20041;-49
2021/08/04 08:36:37;;;;;;;5.82;3.85;;;;;;;;;;5069913;28;20021;-49
2021/08/04 08:39:05;;;;;;;5.63;3.50;;;;;;;;;;5066909;28;20144;-50
2021/08/04 08:41:31;;;;;;;3.90;3.50;;;;;;;;;;5063590;28;20028;-49
2021/08/04 08:43:57;;;;;;;4.60;3.30;;;;;;;;;;5065922;28;20029;-49
2021/08/04 08:46:25;;;;;;;3.47;3.15;;;;;;;;;;5065527;28;20112;-51
2021/08/04 08:48:51;;;;;;;4.60;3.15;;;;;;;;;;5067567;28;20040;-49
2021/08/04 08:51:19;;;;;;;6.30;3.35;;;;;;;;;;5070575;28;20361;-49
2021/08/04 08:53:45;;;;;;;3.58;3.15;;;;;;;;;;5079712;28;20100;-49
2021/08/04 08:56:14;;;;;;;4.07;3.13;;;;;;;;;;5075860;28;20063;-49
2021/08/04 08:58:40;;;;;;;4.05;3.05;;;;;;;;;;5074028;28;20879;-50
2021/08/04 09:01:06;;;;;;;4.78;3.38;;;;;;;;;;5080081;28;20073;-49
2021/08/04 09:03:32;;;;;;;3.47;2.70;;;;;;;;;;5061361;28;20029;-51
2021/08/04 09:05:59;;;;;;;4.10;2.90;;;;;;;;;;5077086;28;20043;-50
2021/08/04 09:08:29;;;;;;;6.07;3.25;;;;;;;;;;5069985;28;20020;-50
2021/08/04 09:10:55;;;;;;;2.78;2.40;;;;;;;;;;5078662;28;20041;-50
2021/08/04 09:13:35;;;;;;;4.78;3.05;;;;;;;;;;5082074;28;20024;-50
2021/08/04 09:16:11;;;;;;;5.13;3.13;;;;;;;;;;5056311;28;20102;-49
2021/08/04 09:18:41;;;;;;;3.53;2.60;;;;;;;;;;5068282;28;20032;-49
2021/08/04 09:21:07;;;;;;;3.85;2.70;;;;;;;;;;5076406;28;20023;-50
2021/08/04 09:23:40;;;;;;;6.47;2.67;;;;;;;;;;5090043;28;20095;-49
2021/08/04 09:26:06;;;;;;;4.88;2.95;;;;;;;;;;5073105;28;20033;-52
2021/08/04 09:28:50;;;;;;;6.03;2.65;;;;;;;;;;5064645;28;20469;-50
2021/08/04 09:31:16;;;;;;;4.05;2.42;;;;;;;;;;5074864;28;20523;-51
2021/08/04 09:33:42;;;;;;;3.42;2.67;;;;;;;;;;5061025;28;20103;-53
2021/08/04 09:36:08;;;;;;;7.43;2.70;;;;;;;;;;5057634;28;20037;-49
2021/08/04 09:38:34;;;;;;;5.28;2.80;;;;;;;;;;5054329;28;20104;-49
2021/08/04 09:41:19;;;;;;;3.25;2.30;;;;;;;;;;5061122;28;20044;-51
2021/08/04 09:43:48;;;;;;;2.40;2.00;;;;;;;;;;5059851;28;20038;-49
2021/08/04 09:46:27;;;;;;;2.85;1.95;;;;;;;;;;5054320;28;20029;-50
2021/08/04 09:48:53;;;;;;;3.40;2.40;;;;;;;;;;5070159;28;20029;-49
2021/08/04 09:51:19;;;;;;;3.22;2.20;;;;;;;;;;5066233;28;20031;-49
2021/08/04 09:53:49;;;;;;;4.13;2.17;;;;;;;;;;5067350;28;20109;-49
2021/08/04 09:56:22;;;;;;;6.15;2.10;;;;;;;;;;5057108;28;20035;-49
2021/08/04 09:58:52;;;;;;;6.72;2.35;;;;;;;;;;5067117;28;20035;-50
2021/08/04 10:01:20;;;;;;;2.17;1.80;;;;;;;;;;5065357;28;20100;-49
2021/08/04 10:04:03;;;;;;;3.15;1.75;;;;;;;;;;5065621;28;20077;-51
2021/08/04 10:06:30;;;;;;;3.78;2.00;;;;;;;;;;5078498;28;20023;-49
2021/08/04 10:08:57;;;;;;;2.65;2.08;;;;;;;;;;5066439;28;20123;-49
2021/08/04 10:11:23;;;;;;;4.68;1.98;;;;;;;;;;5071638;28;20063;-50
2021/08/04 10:13:49;;;;;;;2.30;1.77;;;;;;;;;;5067408;28;20038;-52
2021/08/04 10:16:17;;;;;;;2.05;1.70;;;;;;;;;;5072105;28;20366;-49
2021/08/04 10:18:43;;;;;;;6.63;1.85;;;;;;;;;;5071825;28;20388;-50
2021/08/04 10:21:12;;;;;;;4.93;2.08;;;;;;;;;;5072341;28;20036;-50
2021/08/04 10:23:45;;;;;;;4.82;2.65;;;;;;;;;;5065841;28;20060;-49
2021/08/04 10:26:13;;;;;;;3.10;2.33;;;;;;;;;;5059112;28;20131;-49
2021/08/04 10:28:42;;;;;;;3.47;1.80;;;;;;;;;;5057765;28;20032;-49
2021/08/04 10:31:09;;;;;;;3.42;2.17;;;;;;;;;;5060589;28;20380;-49
2021/08/04 10:33:36;;;;;;;2.15;1.95;;;;;;;;;;5070856;28;20036;-49
2021/08/04 10:36:07;;;;;;;4.30;1.67;;;;;;;;;;5055740;28;20032;-50
2021/08/04 10:38:37;;;;;;;3.75;2.03;;;;;;;;;;5062607;28;20408;-49
2021/08/04 10:41:14;;;;;;;2.85;1.88;;;;;;;;;;5070956;28;20488;-51
2021/08/04 10:43:45;;;;;;;2.13;1.60;;;;;;;;;;5058033;28;20025;-49
2021/08/04 10:46:32;;;;;;;2.10;1.60;;;;;;;;;;5058187;28;20086;-51
2021/08/04 10:48:59;;;;;;;5.38;1.73;;;;;;;;;;5061354;28;20055;-50
2021/08/04 10:51:25;;;;;;;2.47;1.60;;;;;;;;;;5057771;28;20028;-49
2021/08/04 10:54:00;;;;;;;2.53;1.70;;;;;;;;;;5065093;28;20387;-49
2021/08/04 10:56:32;;;;;;;3.28;1.73;;;;;;;;;;5073983;28;20036;-49
2021/08/04 10:59:11;;;;;;;2.28;1.58;;;;;;;;;;5067597;28;20020;-49
2021/08/04 11:01:38;;;;;;;3.25;1.50;;;;;;;;;;5064527;28;20020;-49
2021/08/04 11:04:07;;;;;;;3.35;1.50;;;;;;;;;;5082615;28;20461;-47
2021/08/04 11:06:34;;;;;;;2.10;1.33;;;;;;;;;;5073891;28;20021;-47
2021/08/04 11:09:12;;;;;;;2.40;1.35;;;;;;;;;;5066365;28;20032;-47
2021/08/04 11:11:50;;;;;;;4.00;1.30;;;;;;;;;;5073072;28;20044;-47
2021/08/04 11:14:35;;;;;;;2.92;1.20;;;;;;;;;;5062205;28;20029;-47
2021/08/04 11:17:01;;;;;;;2.40;1.40;;;;;;;;;;5095167;28;20073;-48
2021/08/04 11:19:34;;;;;;;2.47;1.63;;;;;;;;;;5085960;28;20358;-47
2021/08/04 11:22:20;;;;;;;2.40;1.30;;;;;;;;;;5070128;28;20039;-47
2021/08/04 11:24:53;;;;;;;1.88;1.20;;;;;;;;;;5071634;28;20563;-52
2021/08/04 11:27:19;;;;;;;1.98;1.45;;;;;;;;;;5065151;28;20435;-48
2021/08/04 11:29:46;;;;;;;2.22;1.60;;;;;;;;;;5067045;28;20436;-48
2021/08/04 11:32:18;;;;;;;2.88;1.75;;;;;;;;;;5056118;28;20372;-48
2021/08/04 11:34:44;;;;;;;2.28;1.55;;;;;;;;;;5056229;28;20033;-51
2021/08/04 11:37:10;;;;;;;4.88;1.90;;;;;;;;;;5064325;28;20516;-47
2021/08/04 11:39:36;;;;;;;2.88;1.80;;;;;;;;;;5054303;28;20025;-49
2021/08/04 11:42:06;;;;;;;7.63;1.77;;;;;;;;;;5080441;28;20502;-50
2021/08/04 11:44:34;;;;;;;3.75;1.90;;;;;;;;;;5088053;28;20029;-49
2021/08/04 11:47:05;;;;;;;3.10;1.67;;;;;;;;;;5070932;28;20483;-50
2021/08/04 11:49:36;;;;;;;9.27;2.45;;;;;;;;;;5071037;28;20085;-47
2021/08/04 11:52:11;;;;;;;5.97;2.13;;;;;;;;;;5068561;28;20043;-49
2021/08/04 11:54:39;;;;;;;6.53;1.80;;;;;;;;;;5062432;28;20024;-47
2021/08/04 11:57:06;;;;;;;3.33;2.00;;;;;;;;;;5085246;28;20020;-49
2021/08/04 12:00:02;;;;;;;2.38;1.67;;;;;;;;;;5066895;28;20025;-50
2021/08/04 12:02:31;;;;;;;2.92;1.88;;;;;;;;;;5062478;28;20068;-48
2021/08/04 12:04:58;;;;;;;1.77;1.60;;;;;;;;;;5058557;28;20642;-47
2021/08/04 12:07:26;;;;;;;5.75;1.70;;;;;;;;;;5070499;28;20114;-48
2021/08/04 12:09:52;;;;;;;2.08;1.65;;;;;;;;;;5069826;28;20049;-49
2021/08/04 12:12:22;;;;;;;2.60;1.75;;;;;;;;;;5064354;28;20033;-49
2021/08/04 12:14:49;;;;;;;3.20;1.80;;;;;;;;;;5061046;28;20028;-47
2021/08/04 12:17:24;;;;;;;2.55;1.85;;;;;;;;;;5063919;28;20028;-47
2021/08/04 12:19:50;;;;;;;3.40;2.30;;;;;;;;;;5076442;28;20062;-48
2021/08/04 12:22:24;;;;;;;4.00;2.40;;;;;;;;;;5071162;28;20051;-48
2021/08/04 12:24:51;;;;;;;4.57;2.20;;;;;;;;;;5073371;28;20035;-48
2021/08/04 12:27:32;;;;;;;4.57;2.60;;;;;;;;;;5070224;28;20427;-47
2021/08/04 12:30:06;;;;;;;8.48;2.58;;;;;;;;;;5077942;28;20120;-48
2021/08/04 12:32:33;;;;;;;4.70;2.70;;;;;;;;;;5074977;28;20024;-49
2021/08/04 12:35:01;;;;;;;5.75;2.70;;;;;;;;;;5058900;28;20036;-49
2021/08/04 12:37:28;;;;;;;3.90;2.63;;;;;;;;;;5068769;28;20032;-48
2021/08/04 12:39:55;;;;;;;5.40;2.92;;;;;;;;;;5071078;28;20029;-49
2021/08/04 12:42:21;;;;;;;4.97;2.97;;;;;;;;;;5076979;28;20024;-48
2021/08/04 12:44:47;;;;;;;4.88;3.17;;;;;;;;;;5074074;28;20013;-52
2021/08/04 12:47:15;;;;;;;7.10;3.10;;;;;;;;;;5073302;28;20020;-48
2021/08/04 12:49:42;;;;;;;3.90;2.78;;;;;;;;;;5065741;28;20029;-47
2021/08/04 12:52:08;;;;;;;9.30;3.33;;;;;;;;;;5087769;28;20028;-49
2021/08/04 12:54:37;;;;;;;5.13;3.03;;;;;;;;;;5082017;28;20048;-48
2021/08/04 12:57:17;;;;;;;4.35;3.33;;;;;;;;;;5076889;28;20103;-54
2021/08/04 12:59:43;;;;;;;5.30;3.03;;;;;;;;;;5074835;28;20380;-50
2021/08/04 13:02:10;;;;;;;4.43;3.17;;;;;;;;;;5077488;28;20027;-48
2021/08/04 13:04:37;;;;;;;4.00;2.97;;;;;;;;;;5085845;28;20069;-49
2021/08/04 13:07:05;;;;;;;4.32;3.20;;;;;;;;;;5063625;28;20059;-48
2021/08/04 13:09:37;;;;;;;3.38;2.45;;;;;;;;;;5059094;28;20030;-48
2021/08/04 13:12:16;;;;;;;3.13;2.63;;;;;;;;;;5061796;28;20098;-51
2021/08/04 13:14:57;;;;;;;6.45;2.58;;;;;;;;;;5066358;28;20032;-49
2021/08/04 13:17:24;;;;;;;4.47;2.75;;;;;;;;;;5059241;28;20039;-48
2021/08/04 13:20:01;;;;;;;5.35;2.70;;;;;;;;;;5060348;28;20196;-49
2021/08/04 13:22:27;;;;;;;4.30;2.50;;;;;;;;;;5058390;28;20103;-49
2021/08/04 13:24:53;;;;;;;4.63;2.63;;;;;;;;;;5059203;28;20025;-49
2021/08/04 13:27:33;;;;;;;4.20;2.88;;;;;;;;;;5063659;28;20028;-48
2021/08/04 13:30:18;;;;;;;4.07;2.72;;;;;;;;;;5055380;28;20037;-48
2021/08/04 13:32:44;;;;;;;4.78;2.55;;;;;;;;;;5076493;28;20028;-52
2021/08/04 13:35:10;;;;;;;4.50;2.80;;;;;;;;;;5064374;28;20373;-49
2021/08/04 13:37:36;;;;;;;4.38;3.30;;;;;;;;;;5071072;28;20119;-49
2021/08/04 13:40:03;;;;;;;3.83;2.50;;;;;;;;;;5081032;28;20418;-48
2021/08/04 13:42:42;;;;;;;3.33;2.25;;;;;;;;;;5053872;28;20040;-49
2021/08/04 13:45:13;;;;;;;3.95;2.90;;;;;;;;;;5081808;28;20489;-48
2021/08/04 13:47:39;;;;;;;3.92;3.00;;;;;;;;;;5063452;28;20039;-49
2021/08/04 13:50:06;;;;;;;4.80;2.78;;;;;;;;;;5069767;28;20124;-48
2021/08/04 13:52:32;;;;;;;4.15;2.65;;;;;;;;;;5078977;28;20030;-49
2021/08/04 13:54:59;;;;;;;2.72;2.08;;;;;;;;;;5082996;28;20088;-49
2021/08/04 13:57:25;;;;;;;5.13;3.00;;;;;;;;;;5084547;28;20111;-49
2021/08/04 13:59:51;;;;;;;7.97;2.90;;;;;;;;;;5071690;28;20465;-48
2021/08/04 14:02:17;;;;;;;4.05;2.90;;;;;;;;;;5077038;28;20840;-49
2021/08/04 14:04:43;;;;;;;3.45;2.20;;;;;;;;;;5075642;28;20049;-49
2021/08/04 14:07:09;;;;;;;3.65;2.40;;;;;;;;;;5071442;28;20672;-48
2021/08/04 14:09:35;;;;;;;5.95;2.38;;;;;;;;;;5062503;28;20028;-48
2021/08/04 14:12:01;;;;;;;3.17;2.80;;;;;;;;;;5070117;28;20043;-48
2021/08/04 14:14:27;;;;;;;3.08;2.50;;;;;;;;;;5066829;28;20148;-48
2021/08/04 14:16:53;;;;;;;4.38;2.30;;;;;;;;;;5065841;28;20487;-49
2021/08/04 14:19:19;;;;;;;3.33;2.22;;;;;;;;;;5068446;28;20153;-48
2021/08/04 14:21:45;;;;;;;5.88;2.58;;;;;;;;;;5060028;28;20025;-49
2021/08/04 14:24:11;;;;;;;3.70;2.58;;;;;;;;;;5059925;28;20462;-48
2021/08/04 14:26:37;;;;;;;4.70;2.65;;;;;;;;;;5074437;28;20028;-49
2021/08/04 14:29:04;;;;;;;6.43;2.53;;;;;;;;;;5086227;28;20365;-48
2021/08/04 14:31:30;;;;;;;2.50;2.05;;;;;;;;;;5066962;28;20035;-49
2021/08/04 14:33:57;;;;;;;2.88;2.30;;;;;;;;;;5064238;28;20369;-50
2021/08/04 14:36:23;;;;;;;2.10;1.90;;;;;;;;;;5063085;28;20028;-48
2021/08/04 14:38:49;;;;;;;4.93;2.05;;;;;;;;;;5055746;28;20465;-48
2021/08/04 14:41:14;;;;;;;3.97;2.13;;;;;;;;;;5057773;28;20049;-49
2021/08/04 14:43:40;;;;;;;7.07;1.60;;;;;;;;;;5055467;28;20082;-49
2021/08/04 14:46:07;;;;;;;3.85;1.75;;;;;;;;;;5066526;28;20040;-48